createdAt,value
2023-03-22T00:00:51.050Z,9.43
2023-03-22T00:01:51.053Z,9.40
2023-03-22T00:02:51.057Z,9.43
2023-03-22T00:03:51.137Z,9.45
2023-03-22T00:04:51.011Z,9.43
2023-03-22T00:05:51.005Z,9.45
2023-03-22T00:06:50.967Z,9.53
2023-03-22T00:07:50.991Z,9.52
2023-03-22T00:08:50.966Z,9.53
2023-03-22T00:09:50.953Z,9.50
2023-03-22T00:10:50.938Z,9.53
2023-03-22T00:11:51.037Z,9.50
2023-03-22T00:12:50.910Z,9.50
2023-03-22T00:13:50.916Z,9.48
2023-03-22T00:14:50.887Z,9.46
2023-03-22T00:15:50.908Z,9.48
2023-03-22T00:16:50.853Z,9.43
2023-03-22T00:17:50.884Z,9.39
2023-03-22T00:18:50.844Z,9.38
2023-03-22T00:19:50.859Z,9.34
2023-03-22T00:20:50.831Z,9.30
2023-03-22T00:21:50.860Z,9.21
2023-03-22T00:22:50.798Z,9.16
2023-03-22T00:23:50.807Z,9.10
2023-03-22T00:24:50.789Z,9.06
2023-03-22T00:25:50.834Z,9.05
2023-03-22T00:26:50.765Z,9.01
2023-03-22T00:27:50.761Z,8.99
2023-03-22T00:28:50.757Z,8.97
2023-03-22T00:29:50.743Z,8.93
2023-03-22T00:30:50.727Z,8.90
2023-03-22T00:31:50.825Z,8.86
2023-03-22T00:32:50.697Z,8.84
2023-03-22T00:33:50.702Z,8.79
2023-03-22T00:34:50.693Z,8.76
2023-03-22T00:35:50.715Z,8.76
2023-03-22T00:36:50.641Z,8.78
2023-03-22T00:37:50.645Z,8.81
2023-03-22T00:38:50.645Z,8.87
2023-03-22T00:39:50.653Z,8.91
2023-03-22T00:40:50.636Z,8.96
2023-03-22T00:41:50.649Z,8.96
2023-03-22T00:42:50.608Z,8.99
2023-03-22T00:43:50.577Z,9.01
2023-03-22T00:44:50.593Z,8.99
2023-03-22T00:45:50.636Z,8.99
2023-03-22T00:46:50.551Z,8.99
2023-03-22T00:47:50.587Z,8.97
2023-03-22T00:48:50.540Z,8.96
2023-03-22T00:49:50.511Z,8.93
2023-03-22T00:50:50.579Z,8.99
2023-03-22T00:51:50.560Z,8.97
2023-03-22T00:52:50.499Z,8.94
2023-03-22T00:53:50.494Z,8.94
2023-03-22T00:54:50.539Z,8.97
2023-03-22T00:55:50.483Z,8.93
2023-03-22T00:56:50.481Z,8.88
2023-03-22T00:57:50.484Z,8.84
2023-03-22T00:58:50.437Z,8.78
2023-03-22T00:59:50.482Z,8.73
2023-03-22T01:00:50.464Z,8.73
2023-03-22T01:01:50.443Z,8.72
2023-03-22T01:02:50.389Z,8.71
2023-03-22T01:03:50.439Z,8.68
2023-03-22T01:04:50.386Z,8.66
2023-03-22T01:05:50.398Z,8.65
2023-03-22T01:06:50.338Z,8.58
2023-03-22T01:07:50.342Z,8.57
2023-03-22T01:08:50.345Z,8.55
2023-03-22T01:09:50.358Z,8.54
2023-03-22T01:10:50.330Z,8.48
2023-03-22T01:11:50.307Z,8.40
2023-03-22T01:12:50.272Z,8.36
2023-03-22T01:13:50.292Z,8.36
2023-03-22T01:14:50.296Z,8.32
2023-03-22T01:15:50.304Z,8.28
2023-03-22T01:16:50.301Z,8.28
2023-03-22T01:17:50.249Z,8.26
2023-03-22T01:18:50.224Z,8.25
2023-03-22T01:19:50.252Z,8.25
2023-03-22T01:20:50.237Z,8.25
2023-03-22T01:21:50.193Z,8.25
2023-03-22T01:22:50.212Z,8.25
2023-03-22T01:23:50.200Z,8.30
2023-03-22T01:24:50.181Z,8.32
2023-03-22T01:25:50.210Z,8.36
2023-03-22T01:26:50.138Z,8.36
2023-03-22T01:27:50.145Z,8.42
2023-03-22T01:28:50.130Z,8.39
2023-03-22T01:29:50.113Z,8.39
2023-03-22T01:30:50.213Z,8.35
2023-03-22T01:31:50.095Z,8.36
2023-03-22T01:32:50.070Z,8.32
2023-03-22T01:33:50.089Z,8.29
2023-03-22T01:34:50.078Z,8.22
2023-03-22T01:35:50.113Z,8.21
2023-03-22T01:36:50.029Z,8.14
2023-03-22T01:37:50.131Z,8.11
2023-03-22T01:38:50.044Z,8.11
2023-03-22T01:39:50.022Z,8.11
2023-03-22T01:40:50.035Z,8.08
2023-03-22T01:41:50.023Z,8.02
2023-03-22T01:42:50.004Z,7.97
2023-03-22T01:43:49.990Z,7.93
2023-03-22T01:44:49.988Z,7.94
2023-03-22T01:45:50.017Z,7.96
2023-03-22T01:46:49.966Z,7.99
2023-03-22T01:47:49.997Z,8.00
2023-03-22T01:48:49.939Z,7.96
2023-03-22T01:49:49.911Z,7.94
2023-03-22T01:50:49.919Z,7.90
2023-03-22T01:51:49.911Z,7.92
2023-03-22T01:52:49.877Z,7.92
2023-03-22T01:53:49.928Z,7.87
2023-03-22T01:54:49.848Z,7.81
2023-03-22T01:55:49.876Z,7.75
2023-03-22T01:56:49.847Z,7.72
2023-03-22T01:57:49.855Z,7.72
2023-03-22T01:58:49.843Z,7.74
2023-03-22T01:59:49.873Z,7.75
2023-03-22T02:00:49.802Z,7.77
2023-03-22T02:01:49.834Z,7.81
2023-03-22T02:02:49.905Z,7.84
2023-03-22T02:03:49.765Z,7.82
2023-03-22T02:04:49.768Z,7.81
2023-03-22T02:05:49.793Z,7.81
2023-03-22T02:06:49.766Z,7.75
2023-03-22T02:07:49.767Z,7.77
2023-03-22T02:08:49.777Z,7.77
2023-03-22T02:09:49.757Z,7.77
2023-03-22T02:10:49.727Z,7.74
2023-03-22T02:11:49.738Z,7.74
2023-03-22T02:12:50.811Z,7.75
2023-03-22T02:13:49.684Z,7.78
2023-03-22T02:14:49.657Z,7.79
2023-03-22T02:15:49.767Z,7.75
2023-03-22T02:16:49.640Z,7.74
2023-03-22T02:17:49.621Z,7.71
2023-03-22T02:18:49.621Z,7.72
2023-03-22T02:19:49.621Z,7.69
2023-03-22T02:20:49.606Z,7.62
2023-03-22T02:21:49.604Z,7.58
2023-03-22T02:22:49.634Z,7.56
2023-03-22T02:23:49.576Z,7.58
2023-03-22T02:24:49.561Z,7.58
2023-03-22T02:25:49.612Z,7.55
2023-03-22T02:26:49.564Z,7.53
2023-03-22T02:27:49.530Z,7.52
2023-03-22T02:28:49.531Z,7.52
2023-03-22T02:29:49.525Z,7.52
2023-03-22T02:30:49.581Z,7.49
2023-03-22T02:31:49.504Z,7.49
2023-03-22T02:32:49.464Z,7.45
2023-03-22T02:33:49.513Z,7.41
2023-03-22T02:34:49.483Z,7.34
2023-03-22T02:35:49.472Z,7.31
2023-03-22T02:36:49.465Z,7.31
2023-03-22T02:37:49.421Z,7.32
2023-03-22T02:38:49.446Z,7.35
2023-03-22T02:39:49.416Z,7.42
2023-03-22T02:40:49.394Z,7.42
2023-03-22T02:41:49.375Z,7.44
2023-03-22T02:42:49.374Z,7.42
2023-03-22T02:43:49.398Z,7.41
2023-03-22T02:44:49.334Z,7.40
2023-03-22T02:45:49.366Z,7.38
2023-03-22T02:46:49.384Z,7.40
2023-03-22T02:47:49.456Z,7.38
2023-03-22T02:48:49.328Z,7.37
2023-03-22T02:49:49.323Z,7.40
2023-03-22T02:50:49.356Z,7.42
2023-03-22T02:51:49.317Z,7.41
2023-03-22T02:52:49.272Z,7.40
2023-03-22T02:53:49.256Z,7.42
2023-03-22T02:54:49.245Z,7.44
2023-03-22T02:55:49.239Z,7.42
2023-03-22T02:56:49.213Z,7.41
2023-03-22T02:57:49.216Z,7.41
2023-03-22T02:58:49.208Z,7.40
2023-03-22T02:59:49.192Z,7.37
2023-03-22T03:00:49.214Z,7.34
2023-03-22T03:01:49.226Z,7.32
2023-03-22T03:02:49.219Z,7.34
2023-03-22T03:03:49.151Z,7.37
2023-03-22T03:04:49.138Z,7.32
2023-03-22T03:05:49.143Z,7.27
2023-03-22T03:06:49.232Z,7.22
2023-03-22T03:07:49.115Z,7.19
2023-03-22T03:08:49.112Z,7.15
2023-03-22T03:09:49.129Z,7.09
2023-03-22T03:10:49.111Z,7.08
2023-03-22T03:11:49.072Z,7.09
2023-03-22T03:12:49.058Z,7.08
2023-03-22T03:13:49.062Z,7.07
2023-03-22T03:14:49.050Z,7.07
2023-03-22T03:15:49.046Z,7.12
2023-03-22T03:16:49.029Z,7.12
2023-03-22T03:17:49.000Z,7.13
2023-03-22T03:18:48.980Z,7.15
2023-03-22T03:19:48.989Z,7.17
2023-03-22T03:20:49.008Z,7.20
2023-03-22T03:21:48.977Z,7.22
2023-03-22T03:22:48.970Z,7.24
2023-03-22T03:23:48.942Z,7.26
2023-03-22T03:24:48.987Z,7.27
2023-03-22T03:25:49.096Z,7.27
2023-03-22T03:26:48.931Z,7.32
2023-03-22T03:27:48.898Z,7.32
2023-03-22T03:28:48.936Z,7.35
2023-03-22T03:29:48.904Z,7.41
2023-03-22T03:30:48.891Z,7.47
2023-03-22T03:31:48.933Z,7.56
2023-03-22T03:32:48.862Z,7.59
2023-03-22T03:33:48.831Z,7.63
2023-03-22T03:34:48.842Z,7.63
2023-03-22T03:35:48.889Z,7.60
2023-03-22T03:36:48.822Z,7.59
2023-03-22T03:37:48.805Z,7.56
2023-03-22T03:38:48.788Z,7.53
2023-03-22T03:39:48.811Z,7.52
2023-03-22T03:40:48.797Z,7.52
2023-03-22T03:41:48.752Z,7.49
2023-03-22T03:42:48.738Z,7.49
2023-03-22T03:43:48.746Z,7.50
2023-03-22T03:44:48.734Z,7.50
2023-03-22T03:45:48.755Z,7.49
2023-03-22T03:46:48.712Z,7.47
2023-03-22T03:47:48.764Z,7.42
2023-03-22T03:48:48.705Z,7.44
2023-03-22T03:49:48.742Z,7.42
2023-03-22T03:50:48.705Z,7.40
2023-03-22T03:51:48.656Z,7.38
2023-03-22T03:52:48.656Z,7.38
2023-03-22T03:53:48.635Z,7.38
2023-03-22T03:54:48.637Z,7.37
2023-03-22T03:55:48.645Z,7.35
2023-03-22T03:56:48.641Z,7.35
2023-03-22T03:57:48.607Z,7.40
2023-03-22T03:58:48.572Z,7.35
2023-03-22T03:59:48.570Z,7.34
2023-03-22T04:00:48.577Z,7.29
2023-03-22T04:01:48.586Z,7.26
2023-03-22T04:02:48.546Z,7.24
2023-03-22T04:03:48.567Z,7.19
2023-03-22T04:04:48.531Z,7.16
2023-03-22T04:05:48.537Z,7.13
2023-03-22T04:06:48.533Z,7.12
2023-03-22T04:07:48.519Z,7.09
2023-03-22T04:08:48.518Z,7.05
2023-03-22T04:09:48.490Z,7.04
2023-03-22T04:10:48.520Z,7.02
2023-03-22T04:11:48.458Z,7.01
2023-03-22T04:12:48.464Z,6.99
2023-03-22T04:13:48.440Z,6.98
2023-03-22T04:14:48.450Z,6.97
2023-03-22T04:15:48.512Z,6.91
2023-03-22T04:16:48.448Z,6.89
2023-03-22T04:17:48.392Z,6.86
2023-03-22T04:18:48.391Z,6.86
2023-03-22T04:19:48.374Z,6.86
2023-03-22T04:20:48.562Z,6.86
2023-03-22T04:21:48.382Z,6.87
2023-03-22T04:22:48.357Z,6.89
2023-03-22T04:23:48.340Z,6.89
2023-03-22T04:24:48.328Z,6.87
2023-03-22T04:25:48.316Z,6.87
2023-03-22T04:26:48.316Z,6.87
2023-03-22T04:27:48.296Z,6.89
2023-03-22T04:28:48.283Z,6.91
2023-03-22T04:29:48.279Z,6.95
2023-03-22T04:30:48.282Z,6.98
2023-03-22T04:31:48.256Z,7.02
2023-03-22T04:32:48.264Z,7.04
2023-03-22T04:33:48.321Z,7.07
2023-03-22T04:34:48.214Z,7.16
2023-03-22T04:35:48.249Z,7.23
2023-03-22T04:36:48.221Z,7.26
2023-03-22T04:37:48.292Z,7.27
2023-03-22T04:38:48.173Z,7.29
2023-03-22T04:39:48.216Z,7.29
2023-03-22T04:40:48.193Z,7.29
2023-03-22T04:41:48.227Z,7.31
2023-03-22T04:42:48.147Z,7.32
2023-03-22T04:43:48.137Z,7.37
2023-03-22T04:44:48.152Z,7.37
2023-03-22T04:45:48.125Z,7.41
2023-03-22T04:46:48.091Z,7.40
2023-03-22T04:47:48.110Z,7.41
2023-03-22T04:48:48.151Z,7.44
2023-03-22T04:49:48.084Z,7.44
2023-03-22T04:50:48.069Z,7.45
2023-03-22T04:51:48.020Z,7.47
2023-03-22T04:52:47.983Z,7.50
2023-03-22T04:53:47.979Z,7.50
2023-03-22T04:54:48.027Z,7.50
2023-03-22T04:55:47.969Z,7.56
2023-03-22T04:56:47.936Z,7.58
2023-03-22T04:57:47.929Z,7.58
2023-03-22T04:58:47.908Z,7.59
2023-03-22T04:59:47.950Z,7.59
2023-03-22T05:00:47.925Z,7.58
2023-03-22T05:01:47.975Z,7.56
2023-03-22T05:02:47.897Z,7.52
2023-03-22T05:03:47.872Z,7.47
2023-03-22T05:04:47.852Z,7.42
2023-03-22T05:05:47.856Z,7.41
2023-03-22T05:06:47.877Z,7.38
2023-03-22T05:07:47.951Z,7.40
2023-03-22T05:08:47.828Z,7.41
2023-03-22T05:09:47.793Z,7.35
2023-03-22T05:10:47.801Z,7.32
2023-03-22T05:11:47.781Z,7.34
2023-03-22T05:12:47.765Z,7.34
2023-03-22T05:13:47.771Z,7.32
2023-03-22T05:14:47.922Z,7.34
2023-03-22T05:15:47.831Z,7.34
2023-03-22T05:16:47.747Z,7.35
2023-03-22T05:17:47.714Z,7.37
2023-03-22T05:18:47.740Z,7.35
2023-03-22T05:19:47.747Z,7.35
2023-03-22T05:20:47.752Z,7.35
2023-03-22T05:21:47.693Z,7.31
2023-03-22T05:22:47.657Z,7.31
2023-03-22T05:23:49.716Z,7.29
2023-03-22T05:24:47.737Z,7.23
2023-03-22T05:25:47.638Z,7.20
2023-03-22T05:26:47.636Z,7.20
2023-03-22T05:27:47.688Z,7.19
2023-03-22T05:28:47.678Z,7.19
2023-03-22T05:29:47.603Z,7.19
2023-03-22T05:30:47.627Z,7.20
2023-03-22T05:31:47.629Z,7.20
2023-03-22T05:32:47.598Z,7.17
2023-03-22T05:33:47.566Z,7.17
2023-03-22T05:34:47.547Z,7.19
2023-03-22T05:35:47.575Z,7.19
2023-03-22T05:36:47.526Z,7.20
2023-03-22T05:37:47.503Z,7.17
2023-03-22T05:38:47.498Z,7.19
2023-03-22T05:39:47.528Z,7.20
2023-03-22T05:40:47.534Z,7.23
2023-03-22T05:41:47.471Z,7.23
2023-03-22T05:42:47.534Z,7.22
2023-03-22T05:43:47.471Z,7.22
2023-03-22T05:44:47.425Z,7.26
2023-03-22T05:45:47.442Z,7.29
2023-03-22T05:46:47.492Z,7.31
2023-03-22T05:47:47.400Z,7.29
2023-03-22T05:48:47.466Z,7.31
2023-03-22T05:49:47.387Z,7.29
2023-03-22T05:50:47.401Z,7.31
2023-03-22T05:51:47.367Z,7.32
2023-03-22T05:52:47.419Z,7.31
2023-03-22T05:53:47.334Z,7.34
2023-03-22T05:54:47.373Z,7.35
2023-03-22T05:55:47.388Z,7.37
2023-03-22T05:56:47.385Z,7.40
2023-03-22T05:57:47.328Z,7.41
2023-03-22T05:58:47.429Z,7.44
2023-03-22T05:59:47.337Z,7.45
2023-03-22T06:00:47.300Z,7.45
2023-03-22T06:01:47.307Z,7.45
2023-03-22T06:02:47.325Z,7.49
2023-03-22T06:03:47.256Z,7.50
2023-03-22T06:04:47.271Z,7.53
2023-03-22T06:05:47.223Z,7.58
2023-03-22T06:06:47.272Z,7.66
2023-03-22T06:07:47.271Z,7.69
2023-03-22T06:08:47.217Z,7.77
2023-03-22T06:09:47.184Z,7.81
2023-03-22T06:10:47.199Z,7.85
2023-03-22T06:11:47.217Z,7.90
2023-03-22T06:12:47.177Z,7.93
2023-03-22T06:13:47.155Z,7.96
2023-03-22T06:14:47.164Z,7.97
2023-03-22T06:15:47.153Z,7.99
2023-03-22T06:16:47.139Z,8.02
2023-03-22T06:17:47.169Z,8.04
2023-03-22T06:18:47.115Z,8.07
2023-03-22T06:19:47.090Z,8.10
2023-03-22T06:20:47.105Z,8.08
2023-03-22T06:21:47.081Z,8.10
2023-03-22T06:22:47.054Z,8.08
2023-03-22T06:23:47.091Z,8.11
2023-03-22T06:24:47.024Z,8.14
2023-03-22T06:25:47.046Z,8.11
2023-03-22T06:26:47.012Z,8.11
2023-03-22T06:27:47.051Z,8.15
2023-03-22T06:28:47.002Z,8.14
2023-03-22T06:29:46.970Z,8.18
2023-03-22T06:30:47.019Z,8.20
2023-03-22T06:31:46.943Z,8.25
2023-03-22T06:32:46.943Z,8.28
2023-03-22T06:33:46.928Z,8.29
2023-03-22T06:34:46.928Z,8.30
2023-03-22T06:35:47.051Z,8.32
2023-03-22T06:36:46.891Z,8.39
2023-03-22T06:37:46.893Z,8.42
2023-03-22T06:38:46.937Z,8.47
2023-03-22T06:39:46.882Z,8.51
2023-03-22T06:40:46.886Z,8.54
2023-03-22T06:41:46.841Z,8.58
2023-03-22T06:42:46.853Z,8.57
2023-03-22T06:43:46.828Z,8.60
2023-03-22T06:44:46.823Z,8.65
2023-03-22T06:45:46.886Z,8.71
2023-03-22T06:46:46.798Z,8.73
2023-03-22T06:47:46.808Z,8.81
2023-03-22T06:48:46.780Z,8.76
2023-03-22T06:49:46.786Z,8.76
2023-03-22T06:50:47.040Z,8.79
2023-03-22T06:51:46.743Z,8.83
2023-03-22T06:52:46.730Z,8.86
2023-03-22T06:53:46.719Z,8.90
2023-03-22T06:54:46.723Z,8.93
2023-03-22T06:55:46.700Z,8.99
2023-03-22T06:56:46.686Z,9.02
2023-03-22T06:57:46.693Z,9.05
2023-03-22T06:58:46.678Z,9.12
2023-03-22T06:59:46.650Z,9.16
2023-03-22T07:00:46.757Z,9.21
2023-03-22T07:01:46.690Z,9.28
2023-03-22T07:02:46.628Z,9.32
2023-03-22T07:03:46.621Z,9.35
2023-03-22T07:04:46.744Z,9.39
2023-03-22T07:05:46.626Z,9.40
2023-03-22T07:06:46.576Z,9.46
2023-03-22T07:07:46.571Z,9.45
2023-03-22T07:08:46.576Z,9.48
2023-03-22T07:09:46.565Z,9.49
2023-03-22T07:10:46.567Z,9.46
2023-03-22T07:11:46.548Z,9.46
2023-03-22T07:12:46.510Z,9.49
2023-03-22T07:13:46.553Z,9.58
2023-03-22T07:14:46.506Z,9.66
2023-03-22T07:15:46.570Z,9.71
2023-03-22T07:16:46.499Z,9.75
2023-03-22T07:17:46.520Z,9.78
2023-03-22T07:18:46.506Z,9.81
2023-03-22T07:19:46.454Z,9.85
2023-03-22T07:20:46.452Z,9.85
2023-03-22T07:21:46.448Z,9.81
2023-03-22T07:22:46.431Z,9.86
2023-03-22T07:23:46.405Z,9.93
2023-03-22T07:24:56.165Z,9.96
2023-03-22T07:25:46.419Z,10.04
2023-03-22T07:26:46.382Z,10.10
2023-03-22T07:27:46.380Z,10.15
2023-03-22T07:28:46.350Z,10.18
2023-03-22T07:29:46.351Z,10.22
2023-03-22T07:30:46.362Z,10.28
2023-03-22T07:31:46.357Z,10.30
2023-03-22T07:32:46.311Z,10.36
2023-03-22T07:33:46.329Z,10.39
2023-03-22T07:34:46.292Z,10.44
2023-03-22T07:35:46.360Z,10.47
2023-03-22T07:36:46.288Z,10.51
2023-03-22T07:37:46.271Z,10.58
2023-03-22T07:38:46.250Z,10.55
2023-03-22T07:39:46.272Z,10.62
2023-03-22T07:40:46.315Z,10.70
2023-03-22T07:41:46.518Z,10.74
2023-03-22T07:42:46.212Z,10.81
2023-03-22T07:43:55.272Z,10.91
2023-03-22T07:44:46.198Z,10.94
2023-03-22T07:45:46.228Z,10.95
2023-03-22T07:46:46.230Z,10.98
2023-03-22T07:47:46.219Z,11.01
2023-03-22T07:48:46.174Z,11.03
2023-03-22T07:49:46.165Z,11.06
2023-03-22T07:50:46.157Z,11.09
2023-03-22T07:51:46.147Z,11.16
2023-03-22T07:52:46.118Z,11.27
2023-03-22T07:53:46.122Z,11.34
2023-03-22T07:54:46.112Z,11.36
2023-03-22T07:55:46.099Z,11.41
2023-03-22T07:56:46.076Z,11.44
2023-03-22T07:57:46.080Z,11.47
2023-03-22T07:58:46.148Z,11.57
2023-03-22T07:59:46.050Z,11.57
2023-03-22T08:00:46.095Z,11.57
2023-03-22T08:01:46.141Z,11.50
2023-03-22T08:02:46.161Z,11.53
2023-03-22T08:03:46.025Z,11.54
2023-03-22T08:04:46.013Z,11.41
2023-03-22T08:05:46.011Z,11.44
2023-03-22T08:06:45.982Z,11.53
2023-03-22T08:07:45.993Z,11.65
2023-03-22T08:08:45.979Z,11.74
2023-03-22T08:09:45.948Z,11.80
2023-03-22T08:10:45.962Z,11.80
2023-03-22T08:11:45.979Z,11.82
2023-03-22T08:12:45.908Z,11.85
2023-03-22T08:13:45.903Z,11.93
2023-03-22T08:14:45.905Z,11.97
2023-03-22T08:15:45.911Z,12.02
2023-03-22T08:16:45.963Z,12.06
2023-03-22T08:17:45.870Z,12.08
2023-03-22T08:18:45.855Z,12.15
2023-03-22T08:19:45.868Z,12.12
2023-03-22T08:20:45.849Z,12.12
2023-03-22T08:21:45.831Z,12.20
2023-03-22T08:22:45.820Z,12.29
2023-03-22T08:23:46.997Z,12.30
2023-03-22T08:24:45.805Z,12.34
2023-03-22T08:25:45.803Z,12.42
2023-03-22T08:26:45.827Z,12.42
2023-03-22T08:27:45.950Z,12.49
2023-03-22T08:28:45.804Z,12.46
2023-03-22T08:29:45.779Z,12.42
2023-03-22T08:30:45.793Z,12.44
2023-03-22T08:31:45.823Z,12.46
2023-03-22T08:32:45.865Z,12.56
2023-03-22T08:33:45.748Z,12.64
2023-03-22T08:34:45.828Z,12.75
2023-03-22T08:35:45.768Z,12.81
2023-03-22T08:36:45.682Z,12.78
2023-03-22T08:37:45.658Z,12.75
2023-03-22T08:38:45.726Z,12.79
2023-03-22T08:39:45.702Z,12.84
2023-03-22T08:40:45.651Z,12.88
2023-03-22T08:41:45.628Z,12.84
2023-03-22T08:42:45.614Z,12.81
2023-03-22T08:43:45.599Z,12.78
2023-03-22T08:44:45.598Z,12.79
2023-03-22T08:45:45.620Z,12.81
2023-03-22T08:46:45.584Z,12.85
2023-03-22T08:47:45.593Z,12.79
2023-03-22T08:48:45.555Z,12.70
2023-03-22T08:49:45.525Z,12.71
2023-03-22T08:50:45.627Z,12.71
2023-03-22T08:51:45.535Z,12.81
2023-03-22T08:52:45.504Z,12.92
2023-03-22T08:53:45.644Z,12.88
2023-03-22T08:54:45.474Z,12.87
2023-03-22T08:55:45.481Z,12.92
2023-03-22T08:56:45.479Z,12.96
2023-03-22T08:57:45.473Z,13.02
2023-03-22T08:58:45.481Z,13.11
2023-03-22T08:59:45.494Z,13.17
2023-03-22T09:00:49.035Z,13.12
2023-03-22T09:01:45.540Z,13.07
2023-03-22T09:02:45.389Z,13.07
2023-03-22T09:03:45.450Z,13.21
2023-03-22T09:04:45.386Z,13.27
2023-03-22T09:05:45.383Z,13.29
2023-03-22T09:06:45.419Z,13.36
2023-03-22T09:07:45.365Z,13.40
2023-03-22T09:08:45.473Z,13.47
2023-03-22T09:09:45.342Z,13.56
2023-03-22T09:10:45.342Z,13.62
2023-03-22T09:11:45.304Z,13.67
2023-03-22T09:12:45.298Z,13.65
2023-03-22T09:13:45.438Z,13.55
2023-03-22T09:14:45.264Z,13.56
2023-03-22T09:15:45.337Z,13.61
2023-03-22T09:16:45.256Z,13.65
2023-03-22T09:17:45.259Z,13.62
2023-03-22T09:18:45.370Z,13.71
2023-03-22T09:19:45.227Z,13.74
2023-03-22T09:20:45.235Z,13.79
2023-03-22T09:21:45.196Z,13.79
2023-03-22T09:22:45.212Z,13.83
2023-03-22T09:23:45.194Z,13.91
2023-03-22T09:24:45.168Z,13.95
2023-03-22T09:25:45.165Z,13.96
2023-03-22T09:26:45.164Z,14.02
2023-03-22T09:27:45.143Z,14.04
2023-03-22T09:28:45.136Z,14.07
2023-03-22T09:29:45.115Z,14.16
2023-03-22T09:30:45.163Z,14.07
2023-03-22T09:31:45.096Z,14.13
2023-03-22T09:32:45.079Z,14.02
2023-03-22T09:33:45.100Z,13.96
2023-03-22T09:34:45.058Z,13.99
2023-03-22T09:35:45.101Z,14.06
2023-03-22T09:36:45.044Z,14.16
2023-03-22T09:37:45.037Z,14.31
2023-03-22T09:38:45.013Z,14.32
2023-03-22T09:39:45.001Z,14.46
2023-03-22T09:40:45.016Z,14.56
2023-03-22T09:41:45.002Z,14.61
2023-03-22T09:42:45.000Z,14.47
2023-03-22T09:43:44.997Z,14.43
2023-03-22T09:44:44.972Z,14.46
2023-03-22T09:45:44.981Z,14.54
2023-03-22T09:46:45.022Z,14.64
2023-03-22T09:47:45.622Z,14.68
2023-03-22T09:48:44.925Z,14.67
2023-03-22T09:49:53.394Z,14.75
2023-03-22T09:50:44.950Z,14.71
2023-03-22T09:51:44.891Z,14.71
2023-03-22T09:52:44.874Z,14.75
2023-03-22T09:53:44.871Z,14.78
2023-03-22T09:54:44.858Z,14.86
2023-03-22T09:55:44.852Z,14.88
2023-03-22T09:56:44.856Z,14.99
2023-03-22T09:57:44.878Z,15.02
2023-03-22T09:58:44.868Z,15.05
2023-03-22T09:59:44.853Z,15.17
2023-03-22T10:00:45.013Z,15.24
2023-03-22T10:01:45.038Z,15.28
2023-03-22T10:02:44.846Z,15.33
2023-03-22T10:03:44.801Z,15.23
2023-03-22T10:04:44.795Z,15.20
2023-03-22T10:05:44.798Z,15.20
2023-03-22T10:06:44.842Z,15.01
2023-03-22T10:07:44.827Z,15.01
2023-03-22T10:08:44.738Z,15.17
2023-03-22T10:09:44.700Z,15.28
2023-03-22T10:10:44.695Z,15.41
2023-03-22T10:11:46.109Z,15.51
2023-03-22T10:12:44.672Z,15.49
2023-03-22T10:13:44.690Z,15.39
2023-03-22T10:14:44.636Z,15.35
2023-03-22T10:15:44.674Z,15.30
2023-03-22T10:16:44.634Z,15.26
2023-03-22T10:17:44.609Z,15.13
2023-03-22T10:18:44.611Z,15.13
2023-03-22T10:19:44.729Z,15.02
2023-03-22T10:20:44.587Z,14.91
2023-03-22T10:21:44.585Z,14.95
2023-03-22T10:22:44.565Z,15.05
2023-03-22T10:23:44.551Z,15.12
2023-03-22T10:24:44.551Z,15.30
2023-03-22T10:25:44.559Z,15.35
2023-03-22T10:26:44.533Z,15.43
2023-03-22T10:27:44.508Z,15.54
2023-03-22T10:28:44.508Z,15.64
2023-03-22T10:29:44.517Z,15.70
2023-03-22T10:30:44.497Z,15.81
2023-03-22T10:31:44.543Z,15.96
2023-03-22T10:32:56.849Z,16.14
2023-03-22T10:33:44.578Z,16.22
2023-03-22T10:34:44.436Z,16.23
2023-03-22T10:35:44.481Z,16.09
2023-03-22T10:36:44.462Z,15.89
2023-03-22T10:37:44.405Z,15.89
2023-03-22T10:38:44.400Z,15.89
2023-03-22T10:39:44.393Z,15.94
2023-03-22T10:40:44.403Z,16.04
2023-03-22T10:41:44.424Z,16.23
2023-03-22T10:42:44.389Z,16.37
2023-03-22T10:43:44.353Z,16.38
2023-03-22T10:44:44.352Z,16.33
2023-03-22T10:45:44.379Z,16.33
2023-03-22T10:46:44.368Z,16.40
2023-03-22T10:47:44.416Z,16.48
2023-03-22T10:48:44.320Z,16.60
2023-03-22T10:49:44.384Z,16.71
2023-03-22T10:50:44.298Z,16.73
2023-03-22T10:51:44.284Z,16.83
2023-03-22T10:52:44.244Z,16.98
2023-03-22T10:53:44.264Z,17.07
2023-03-22T10:54:44.240Z,17.10
2023-03-22T10:55:44.243Z,17.15
2023-03-22T10:56:45.122Z,17.11
2023-03-22T10:57:44.218Z,16.95
2023-03-22T10:58:44.184Z,16.93
2023-03-22T10:59:44.183Z,16.98
2023-03-22T11:00:44.321Z,17.00
2023-03-22T11:01:44.385Z,17.06
2023-03-22T11:02:44.193Z,17.13
2023-03-22T11:03:44.148Z,17.15
2023-03-22T11:04:44.170Z,17.03
2023-03-22T11:05:44.161Z,16.78
2023-03-22T11:06:44.147Z,16.78
2023-03-22T11:07:44.112Z,16.73
2023-03-22T11:08:44.100Z,16.80
2023-03-22T11:09:44.097Z,16.86
2023-03-22T11:10:44.159Z,16.88
2023-03-22T11:11:44.068Z,16.92
2023-03-22T11:12:44.062Z,17.08
2023-03-22T11:13:44.062Z,17.18
2023-03-22T11:14:44.040Z,17.28
2023-03-22T11:15:44.046Z,17.33
2023-03-22T11:16:44.103Z,17.35
2023-03-22T11:17:44.422Z,17.38
2023-03-22T11:18:44.019Z,17.46
2023-03-22T11:19:43.984Z,17.54
2023-03-22T11:20:44.387Z,17.57
2023-03-22T11:21:43.976Z,17.59
2023-03-22T11:22:43.940Z,17.62
2023-03-22T11:23:43.945Z,17.48
2023-03-22T11:24:43.941Z,17.57
2023-03-22T11:25:43.914Z,17.70
2023-03-22T11:26:43.936Z,17.71
2023-03-22T11:27:43.892Z,17.67
2023-03-22T11:28:43.894Z,17.66
2023-03-22T11:29:43.864Z,17.66
2023-03-22T11:30:43.994Z,17.70
2023-03-22T11:31:43.878Z,17.73
2023-03-22T11:32:43.951Z,17.64
2023-03-22T11:33:43.919Z,17.64
2023-03-22T11:34:43.823Z,17.53
2023-03-22T11:35:43.927Z,17.41
2023-03-22T11:36:43.820Z,17.35
2023-03-22T11:37:43.789Z,17.28
2023-03-22T11:38:45.542Z,17.26
2023-03-22T11:39:43.780Z,17.18
2023-03-22T11:40:43.781Z,17.03
2023-03-22T11:41:43.741Z,16.95
2023-03-22T11:42:43.765Z,16.93
2023-03-22T11:43:43.734Z,17.04
2023-03-22T11:44:43.747Z,17.14
2023-03-22T11:45:43.893Z,17.29
2023-03-22T11:46:43.708Z,17.36
2023-03-22T11:47:43.837Z,17.46
2023-03-22T11:48:43.949Z,17.46
2023-03-22T11:49:43.686Z,17.46
2023-03-22T11:50:43.840Z,17.63
2023-03-22T11:51:43.655Z,17.71
2023-03-22T11:52:43.652Z,17.62
2023-03-22T11:53:43.651Z,17.69
2023-03-22T11:54:43.618Z,17.67
2023-03-22T11:55:43.776Z,17.70
2023-03-22T11:56:43.626Z,17.69
2023-03-22T11:57:43.585Z,17.78
2023-03-22T11:58:43.578Z,17.79
2023-03-22T11:59:43.565Z,17.85
2023-03-22T12:00:43.571Z,17.87
2023-03-22T12:01:43.535Z,17.91
2023-03-22T12:02:43.715Z,17.88
2023-03-22T12:03:43.635Z,17.88
2023-03-22T12:04:43.542Z,18.03
2023-03-22T12:05:43.961Z,18.22
2023-03-22T12:06:43.508Z,18.34
2023-03-22T12:07:43.484Z,18.37
2023-03-22T12:08:43.540Z,18.37
2023-03-22T12:09:43.450Z,18.19
2023-03-22T12:10:43.466Z,18.18
2023-03-22T12:11:43.440Z,18.22
2023-03-22T12:12:43.438Z,18.21
2023-03-22T12:13:43.442Z,18.22
2023-03-22T12:14:43.460Z,18.25
2023-03-22T12:15:44.157Z,18.21
2023-03-22T12:16:43.480Z,18.25
2023-03-22T12:17:43.694Z,18.31
2023-03-22T12:18:43.422Z,18.21
2023-03-22T12:19:43.465Z,18.21
2023-03-22T12:20:43.496Z,18.13
2023-03-22T12:21:43.332Z,18.07
2023-03-22T12:22:43.482Z,18.09
2023-03-22T12:23:43.317Z,18.15
2023-03-22T12:24:43.306Z,18.06
2023-03-22T12:25:43.465Z,18.02
2023-03-22T12:26:43.292Z,18.03
2023-03-22T12:27:43.288Z,18.12
2023-03-22T12:28:43.293Z,18.19
2023-03-22T12:29:43.295Z,18.10
2023-03-22T12:30:43.454Z,18.02
2023-03-22T12:31:43.299Z,17.99
2023-03-22T12:32:43.320Z,17.95
2023-03-22T12:33:43.222Z,17.95
2023-03-22T12:34:43.197Z,17.88
2023-03-22T12:35:43.715Z,17.85
2023-03-22T12:36:43.190Z,17.87
2023-03-22T12:37:43.181Z,17.85
2023-03-22T12:38:43.180Z,17.91
2023-03-22T12:39:43.167Z,17.99
2023-03-22T12:40:43.725Z,18.07
2023-03-22T12:41:43.160Z,18.22
2023-03-22T12:42:50.744Z,18.31
2023-03-22T12:43:43.125Z,18.36
2023-03-22T12:44:44.700Z,18.39
2023-03-22T12:45:43.101Z,18.42
2023-03-22T12:46:43.101Z,18.47
2023-03-22T12:47:43.175Z,18.52
2023-03-22T12:48:44.681Z,18.57
2023-03-22T12:49:43.051Z,18.52
2023-03-22T12:50:43.296Z,18.49
2023-03-22T12:51:43.038Z,18.36
2023-03-22T12:52:45.741Z,18.29
2023-03-22T12:53:43.031Z,18.39
2023-03-22T12:54:43.008Z,18.34
2023-03-22T12:55:43.584Z,18.37
2023-03-22T12:56:42.969Z,18.37
2023-03-22T12:57:42.969Z,18.29
2023-03-22T12:58:44.974Z,18.31
2023-03-22T12:59:42.978Z,18.29
2023-03-22T13:00:43.215Z,18.22
2023-03-22T13:01:42.914Z,18.24
2023-03-22T13:02:43.015Z,18.24
2023-03-22T13:03:42.995Z,18.31
2023-03-22T13:04:42.902Z,18.33
2023-03-22T13:05:43.049Z,18.33
2023-03-22T13:06:42.868Z,18.39
2023-03-22T13:07:42.862Z,18.37